createdAt,value
2023-05-01T00:00:14.732Z,8.35
2023-05-01T00:05:21.674Z,8.24
2023-05-01T00:10:24.408Z,8.38
2023-05-01T00:15:26.659Z,8.18
2023-05-01T00:20:30.030Z,8.18
2023-05-01T00:25:32.833Z,8.15
2023-05-01T00:30:36.462Z,7.95
2023-05-01T00:35:38.697Z,7.78
2023-05-01T00:40:45.388Z,7.82
2023-05-01T00:45:48.063Z,7.56
2023-05-01T00:50:50.809Z,7.51
2023-05-01T00:55:54.799Z,7.58
2023-05-01T01:00:57.657Z,7.74
2023-05-01T01:06:20.684Z,7.97
2023-05-01T01:11:42.202Z,8.10
2023-05-01T01:16:54.310Z,7.77
2023-05-01T01:22:13.149Z,7.52
2023-05-01T01:27:30.959Z,7.43
2023-05-01T01:32:48.681Z,7.22
2023-05-01T01:38:09.368Z,7.08
2023-05-01T01:43:15.165Z,7.03
2023-05-01T01:48:26.198Z,7.05
2023-05-01T01:53:31.571Z,6.99
2023-05-01T01:58:37.397Z,7.33
2023-05-01T02:03:41.166Z,7.17
2023-05-01T02:08:47.721Z,7.03
2023-05-01T02:13:52.170Z,7.01
2023-05-01T02:18:56.952Z,6.89
2023-05-01T02:24:02.841Z,6.84
2023-05-01T02:29:07.737Z,6.57
2023-05-01T02:34:10.009Z,6.68
2023-05-01T02:39:12.780Z,6.68
2023-05-01T02:44:16.536Z,6.49
2023-05-01T02:49:20.670Z,6.18
2023-05-01T02:54:23.499Z,5.99
2023-05-01T02:59:26.226Z,6.11
2023-05-01T03:04:29.257Z,5.85
2023-05-01T03:09:32.299Z,5.91
2023-05-01T03:14:35.217Z,5.91
2023-05-01T03:19:37.755Z,6.07
2023-05-01T03:24:40.388Z,6.22
2023-05-01T03:29:42.564Z,6.13
2023-05-01T03:34:46.074Z,5.92
2023-05-01T03:39:49.282Z,6.05
2023-05-01T03:45:11.755Z,6.24
2023-05-01T03:50:14.851Z,6.23
2023-05-01T03:55:20.062Z,6.30
2023-05-01T04:00:24.476Z,6.32
2023-05-01T04:05:27.130Z,6.00
2023-05-01T04:10:36.282Z,6.28
2023-05-01T04:15:40.232Z,6.47
2023-05-01T04:20:43.006Z,6.67
2023-05-01T04:25:46.984Z,6.88
2023-05-01T04:30:53.330Z,7.17
2023-05-01T04:35:56.120Z,7.20
2023-05-01T04:40:59.301Z,7.40
2023-05-01T04:46:04.498Z,7.34
2023-05-01T04:51:08.683Z,7.65
2023-05-01T04:56:11.364Z,7.72
2023-05-01T05:01:14.010Z,7.90
2023-05-01T05:06:16.998Z,8.16
2023-05-01T05:11:21.557Z,9.16
2023-05-01T05:16:36.575Z,10.70
2023-05-01T05:21:39.222Z,11.84
2023-05-01T05:26:42.014Z,12.62
2023-05-01T05:31:45.202Z,13.79
2023-05-01T05:36:47.906Z,14.69
2023-05-01T05:41:54.142Z,15.25
2023-05-01T05:46:57.446Z,16.02
2023-05-01T05:52:11.787Z,16.96
2023-05-01T05:57:15.335Z,17.34
2023-05-01T06:02:24.131Z,18.74
2023-05-01T06:07:26.937Z,22.99
2023-05-01T06:12:29.942Z,26.29
2023-05-01T06:17:34.839Z,26.61
2023-05-01T06:22:37.578Z,28.43
2023-05-01T06:27:49.225Z,30.24
2023-05-01T06:32:52.390Z,32.21
2023-05-01T06:37:56.344Z,30.58
2023-05-01T06:42:59.191Z,31.39
2023-05-01T06:48:04.576Z,32.00
2023-05-01T06:53:07.518Z,31.23
2023-05-01T06:58:22.592Z,31.53
2023-05-01T07:03:30.615Z,30.46
2023-05-01T07:08:33.280Z,26.64
2023-05-01T07:13:35.723Z,27.48
2023-05-01T07:18:38.593Z,28.76
2023-05-01T07:23:41.229Z,25.36
2023-05-01T07:28:43.929Z,23.77
2023-05-01T07:33:46.257Z,22.69
2023-05-01T07:38:49.536Z,21.95
2023-05-01T07:43:51.904Z,21.63
2023-05-01T07:48:54.809Z,20.44
2023-05-01T07:53:57.650Z,20.06
2023-05-01T07:59:00.216Z,20.37
2023-05-01T08:04:03.193Z,21.37
2023-05-01T08:09:05.878Z,21.98
2023-05-01T08:14:08.587Z,21.44
2023-05-01T08:19:11.265Z,20.99
2023-05-01T08:24:13.899Z,20.45
2023-05-01T08:29:16.503Z,21.72
2023-05-01T08:34:19.133Z,22.16
2023-05-01T08:39:21.846Z,22.06
2023-05-01T08:44:26.857Z,22.69
2023-05-01T08:49:33.843Z,21.99
2023-05-01T08:54:39.203Z,21.44
2023-05-01T08:59:42.258Z,20.62
2023-05-01T09:04:46.947Z,21.29
2023-05-01T09:09:49.606Z,22.14
2023-05-01T09:14:57.116Z,23.75
2023-05-01T09:20:01.979Z,23.96
2023-05-01T09:25:04.909Z,23.84
2023-05-01T09:30:09.174Z,23.34
2023-05-01T09:35:13.622Z,24.90
2023-05-01T09:40:16.284Z,25.69
2023-05-01T09:45:20.204Z,25.47
2023-05-01T09:50:34.614Z,25.91
2023-05-01T09:55:37.234Z,25.59
2023-05-01T10:00:51.813Z,26.23
2023-05-01T10:05:57.122Z,26.34
2023-05-01T10:11:05.365Z,24.81
2023-05-01T10:16:14.811Z,22.32
2023-05-01T10:21:17.644Z,22.95
2023-05-01T10:26:21.075Z,25.40
2023-05-01T10:31:23.282Z,25.23
2023-05-01T10:36:40.742Z,24.61
2023-05-01T10:41:59.799Z,23.54
2023-05-01T10:47:25.423Z,23.36
2023-05-01T10:52:28.291Z,23.01
2023-05-01T10:57:44.631Z,23.13
2023-05-01T11:02:47.762Z,21.39
2023-05-01T11:08:28.741Z,21.12
2023-05-01T11:14:00.510Z,21.03
2023-05-01T11:19:03.283Z,20.03
2023-05-01T11:24:09.686Z,20.04
2023-05-01T11:29:12.851Z,19.88
2023-05-01T11:34:16.472Z,19.93
2023-05-01T11:39:20.248Z,21.50
2023-05-01T11:44:22.330Z,22.61
2023-05-01T11:49:31.549Z,23.59
2023-05-01T11:54:47.954Z,24.57
2023-05-01T11:59:50.914Z,23.60
2023-05-01T12:04:54.272Z,23.37
2023-05-01T12:09:57.078Z,22.30
2023-05-01T12:14:59.959Z,19.97
2023-05-01T12:20:04.557Z,18.51
2023-05-01T12:25:07.733Z,17.66
2023-05-01T12:30:11.050Z,17.37
2023-05-01T12:35:16.268Z,16.50
2023-05-01T12:40:19.253Z,15.91
2023-05-01T12:45:21.912Z,15.59
2023-05-01T12:50:24.665Z,15.75
2023-05-01T12:55:27.640Z,16.18
2023-05-01T13:00:49.053Z,16.61
2023-05-01T13:05:53.449Z,17.22
2023-05-01T13:10:57.876Z,17.19
2023-05-01T13:16:16.642Z,17.03
2023-05-01T13:21:24.143Z,17.34
2023-05-01T13:26:36.190Z,17.88
2023-05-01T13:31:43.097Z,18.20
2023-05-01T13:36:46.605Z,18.43
2023-05-01T13:41:50.904Z,18.21
2023-05-01T13:46:53.478Z,18.38
2023-05-01T13:51:56.233Z,18.56
2023-05-01T13:56:59.732Z,18.36
2023-05-01T14:02:02.925Z,18.34
2023-05-01T14:07:05.872Z,18.49
2023-05-01T14:12:08.345Z,18.60
2023-05-01T14:17:12.053Z,18.69
2023-05-01T14:22:14.651Z,18.80
2023-05-01T14:27:16.887Z,18.71
2023-05-01T14:32:19.763Z,18.76
2023-05-01T14:37:22.272Z,18.75
2023-05-01T14:42:25.012Z,18.53
2023-05-01T14:47:27.191Z,18.73
2023-05-01T14:52:30.277Z,18.85
2023-05-01T14:57:32.546Z,18.90
2023-05-01T15:02:35.654Z,18.70
2023-05-01T15:07:38.467Z,19.17
2023-05-01T15:12:41.474Z,18.94
2023-05-01T15:17:44.229Z,19.46
2023-05-01T15:22:46.439Z,19.52
2023-05-01T15:27:50.577Z,18.65
2023-05-01T15:32:55.662Z,17.93
2023-05-01T15:37:58.515Z,18.17
2023-05-01T15:43:01.915Z,18.70
2023-05-01T15:48:05.106Z,18.72
2023-05-01T15:53:07.231Z,18.52
2023-05-01T15:58:09.891Z,18.36
2023-05-01T16:03:13.582Z,18.48
2023-05-01T16:08:19.528Z,18.41
2023-05-01T16:13:22.217Z,18.25
2023-05-01T16:18:25.911Z,18.22
2023-05-01T16:23:28.841Z,17.60
2023-05-01T16:28:31.586Z,17.93
2023-05-01T16:33:34.218Z,17.45
2023-05-01T16:38:38.239Z,17.33
2023-05-01T16:43:40.852Z,17.19
2023-05-01T16:48:43.843Z,16.71
2023-05-01T16:53:46.893Z,16.50
2023-05-01T16:58:49.598Z,16.33
2023-05-01T17:03:52.679Z,16.13
2023-05-01T17:08:55.291Z,16.01
2023-05-01T17:13:57.875Z,15.33
2023-05-01T17:19:01.751Z,15.25
2023-05-01T17:24:04.810Z,15.01
2023-05-01T17:29:07.416Z,14.83
2023-05-01T17:34:09.648Z,14.40
2023-05-01T17:39:12.290Z,14.13
2023-05-01T17:44:14.497Z,13.79
2023-05-01T17:49:17.581Z,13.81
2023-05-01T17:54:20.332Z,13.46
2023-05-01T17:59:23.024Z,13.10
2023-05-01T18:04:25.743Z,12.82
2023-05-01T18:09:28.378Z,12.55
2023-05-01T18:14:30.745Z,12.22
2023-05-01T18:19:33.418Z,12.05
2023-05-01T18:24:35.880Z,11.98
2023-05-01T18:29:38.625Z,11.65
2023-05-01T18:34:40.858Z,11.65
2023-05-01T18:39:43.568Z,11.49
2023-05-01T18:44:46.554Z,11.14
2023-05-01T18:49:49.683Z,11.14
2023-05-01T18:54:51.857Z,10.80
2023-05-01T18:59:54.422Z,10.78
2023-05-01T19:04:58.289Z,10.44
2023-05-01T19:10:01.393Z,10.24
2023-05-01T19:15:03.959Z,10.31
2023-05-01T19:20:07.436Z,10.14
2023-05-01T19:25:10.379Z,9.98
2023-05-01T19:30:13.352Z,9.79
2023-05-01T19:35:16.490Z,9.79
2023-05-01T19:40:18.738Z,9.43
2023-05-01T19:45:21.389Z,9.44
2023-05-01T19:50:23.958Z,9.28
2023-05-01T19:55:27.119Z,9.06
2023-05-01T20:00:29.722Z,9.10
2023-05-01T20:05:32.808Z,8.94
2023-05-01T20:10:35.487Z,8.94
2023-05-01T20:15:39.306Z,8.82
2023-05-01T20:20:42.085Z,8.50
2023-05-01T20:25:46.730Z,8.47
2023-05-01T20:30:49.070Z,8.51
2023-05-01T20:35:51.844Z,8.08
2023-05-01T20:40:54.832Z,8.31
2023-05-01T20:45:57.475Z,8.39
2023-05-01T20:51:08.193Z,8.20
2023-05-01T20:56:10.852Z,8.21
2023-05-01T21:01:13.810Z,8.04
2023-05-01T21:06:16.774Z,7.83
2023-05-01T21:11:19.516Z,7.90
2023-05-01T21:16:22.125Z,7.62
2023-05-01T21:21:26.613Z,7.83
2023-05-01T21:26:29.677Z,7.30
2023-05-01T21:31:37.010Z,7.51
2023-05-01T21:36:45.320Z,7.34
2023-05-01T21:41:49.696Z,7.44
2023-05-01T21:46:56.520Z,7.12
2023-05-01T21:52:00.593Z,7.23
2023-05-01T21:57:05.747Z,7.35
2023-05-01T22:02:10.289Z,7.50
2023-05-01T22:07:13.167Z,6.93
2023-05-01T22:12:15.877Z,7.08
2023-05-01T22:17:24.456Z,6.89
2023-05-01T22:22:27.139Z,6.78
2023-05-01T22:27:29.776Z,6.68
2023-05-01T22:32:32.603Z,6.77
2023-05-01T22:37:35.306Z,6.69
2023-05-01T22:42:37.895Z,6.52
2023-05-01T22:47:40.709Z,6.50
2023-05-01T22:52:45.869Z,6.44
2023-05-01T22:57:49.163Z,6.30
2023-05-01T23:02:52.061Z,6.45
2023-05-01T23:07:55.393Z,6.25
2023-05-01T23:12:58.155Z,6.33
2023-05-01T23:18:00.805Z,6.16
2023-05-01T23:23:12.281Z,6.08
2023-05-01T23:28:20.856Z,6.27
2023-05-01T23:33:26.531Z,5.81
2023-05-01T23:38:29.315Z,6.16
2023-05-01T23:43:32.816Z,6.02
2023-05-01T23:48:35.552Z,5.84
2023-05-01T23:53:37.921Z,5.61
2023-05-01T23:58:40.839Z,5.74
